Time;durP1;ratioP1;P1;durP2;ratioP2;P2;SDS_P1;SDS_P2;PMS_P1;PMS_P2;Temp;Humidity;BMP_temperature;BMP_pressure;BME280_temperature;BME280_humidity;BME280_pressure;Samples;Min_cycle;Max_cycle;Signal;HPM_P1;HPM_P2
2023/10/06 00:02:11;;;;;;;2.90;1.17;;;;;;;;;;5051348;28;20175;-70
2023/10/06 00:04:38;;;;;;;2.65;1.10;;;;;;;;;;5051588;28;20033;-70
2023/10/06 00:07:07;;;;;;;1.25;0.82;;;;;;;;;;5051566;28;20411;-70
2023/10/06 00:09:34;;;;;;;2.35;1.10;;;;;;;;;;5051246;28;20075;-70
2023/10/06 00:12:03;;;;;;;2.20;0.82;;;;;;;;;;5051290;28;20118;-70
2023/10/06 00:14:39;;;;;;;1.77;0.95;;;;;;;;;;5051210;28;20025;-69
2023/10/06 00:17:28;;;;;;;1.63;1.23;;;20.20;71.90;;;;;;5051432;28;20087;-70
2023/10/06 00:19:56;;;;;;;2.42;1.00;;;;;;;;;;5051260;28;20037;-70
2023/10/06 00:22:26;;;;;;;1.80;0.80;;;;;;;;;;5051157;28;20496;-70
2023/10/06 00:24:58;;;;;;;2.78;1.13;;;;;;;;;;5051155;28;20060;-71
2023/10/06 00:27:30;;;;;;;1.17;0.70;;;;;;;;;;5051310;28;20076;-69
2023/10/06 00:29:56;;;;;;;2.20;1.10;;;;;;;;;;5054042;28;20438;-71
2023/10/06 00:32:26;;;;;;;3.22;0.90;;;20.70;72.50;;;;;;5055062;28;20423;-71
2023/10/06 00:35:10;;;;;;;2.45;0.98;;;20.80;77.90;;;;;;5055031;28;20029;-71
2023/10/06 00:37:38;;;;;;;2.13;1.20;;;;;;;;;;5054967;28;20103;-71
2023/10/06 00:40:10;;;;;;;1.13;0.85;;;;;;;;;;5055046;28;20040;-71
2023/10/06 00:42:37;;;;;;;1.50;0.90;;;;;;;;;;5054924;28;20087;-71
2023/10/06 00:45:07;;;;;;;2.00;1.00;;;20.70;76.40;;;;;;5055122;28;20037;-71
2023/10/06 00:47:38;;;;;;;1.15;0.68;;;;;;;;;;5055256;28;20039;-72
2023/10/06 00:50:07;;;;;;;2.50;1.10;;;20.60;77.90;;;;;;5054937;28;20122;-72
2023/10/06 00:52:39;;;;;;;2.13;0.77;;;;;;;;;;5054648;28;20033;-70
2023/10/06 00:55:19;;;;;;;3.08;1.20;;;;;;;;;;5052746;28;20053;-71
2023/10/06 00:57:52;;;;;;;3.50;0.95;;;;;;;;;;5054568;28;20075;-71
2023/10/06 01:00:20;;;;;;;3.10;1.30;;;;;;;;;;5054730;28;20045;-71
2023/10/06 01:02:47;;;;;;;2.17;0.90;;;;;;;;;;5054381;28;20047;-71
2023/10/06 01:05:17;;;;;;;3.60;1.20;;;;;;;;;;5054698;28;20033;-71
2023/10/06 01:07:46;;;;;;;2.33;0.90;;;;;;;;;;5054542;28;20083;-71
2023/10/06 01:10:17;;;;;;;1.60;1.00;;;20.70;78.10;;;;;;5054340;28;20344;-70
2023/10/06 01:12:50;;;;;;;2.05;1.08;;;;;;;;;;5054325;28;20037;-71
2023/10/06 01:15:17;;;;;;;2.47;0.98;;;;;;;;;;5055122;28;20057;-71
2023/10/06 01:17:43;;;;;;;1.85;1.10;;;20.60;77.00;;;;;;5054538;28;20411;-71
2023/10/06 01:20:11;;;;;;;3.67;0.90;;;;;;;;;;5054243;28;20033;-72
2023/10/06 01:22:44;;;;;;;3.78;0.93;;;;;;;;;;5054197;28;20048;-72
2023/10/06 01:25:20;;;;;;;1.67;1.15;;;;;;;;;;5054294;28;20060;-72
2023/10/06 01:27:50;;;;;;;1.65;0.68;;;;;;;;;;5054295;28;20033;-71
2023/10/06 01:32:45;;;;;;;3.70;0.80;;;20.50;75.50;;;;;;5054441;28;20468;-71
2023/10/06 01:35:13;;;;;;;1.95;1.20;;;20.40;78.30;;;;;;5054082;28;20577;-71
2023/10/06 01:37:41;;;;;;;0.93;0.60;;;20.60;78.40;;;;;;5054008;28;20129;-72
2023/10/06 01:40:15;;;;;;;2.58;1.13;;;;;;;;;;5053634;28;20060;-72
2023/10/06 01:42:48;;;;;;;3.45;1.35;;;;;;;;;;5054662;28;20048;-70
2023/10/06 01:45:17;;;;;;;1.70;1.10;;;;;;;;;;5054076;28;20144;-70
2023/10/06 01:47:45;;;;;;;6.07;1.27;;;;;;;;;;5054115;28;20041;-71
2023/10/06 01:50:11;;;;;;;2.65;1.02;;;;;;;;;;5053650;28;20095;-70
2023/10/06 01:52:40;;;;;;;2.50;1.10;;;;;;;;;;5053637;28;20033;-69
2023/10/06 01:55:09;;;;;;;1.90;1.10;;;20.20;78.00;;;;;;5053644;28;20041;-69
2023/10/06 01:57:35;;;;;;;2.28;0.90;;;;;;;;;;5053385;28;20449;-69
2023/10/06 02:00:03;;;;;;;1.88;0.88;;;;;;;;;;5053613;28;20116;-69
2023/10/06 02:02:30;;;;;;;2.35;0.98;;;;;;;;;;5053578;28;20094;-70
2023/10/06 02:04:59;;;;;;;2.20;1.00;;;;;;;;;;5053372;28;20036;-69
2023/10/06 02:07:25;;;;;;;2.35;1.08;;;;;;;;;;5053461;28;20040;-69
2023/10/06 02:09:51;;;;;;;2.38;1.05;;;;;;;;;;5053293;28;20124;-69
2023/10/06 02:12:17;;;;;;;1.55;0.80;;;;;;;;;;5053886;28;20511;-70
2023/10/06 02:14:44;;;;;;;2.75;1.05;;;;;;;;;;5053237;28;20025;-70
2023/10/06 02:17:11;;;;;;;1.58;0.77;;;;;;;;;;5053462;28;20112;-69
2023/10/06 02:19:37;;;;;;;3.53;1.40;;;;;;;;;;5053099;28;20207;-69
2023/10/06 02:22:06;;;;;;;3.08;1.10;;;;;;;;;;5052999;28;20049;-69
2023/10/06 02:24:32;;;;;;;3.20;1.05;;;;;;;;;;5053018;28;20110;-70
2023/10/06 02:27:00;;;;;;;3.15;1.10;;;;;;;;;;5053014;28;20044;-69
2023/10/06 02:29:26;;;;;;;1.45;0.95;;;;;;;;;;5052897;28;20037;-69
2023/10/06 02:32:06;;;;;;;1.98;1.00;;;20.30;78.30;;;;;;5052918;28;20037;-69
2023/10/06 02:34:38;;;;;;;2.38;1.23;;;;;;;;;;5052959;28;20538;-69
2023/10/06 02:37:06;;;;;;;1.27;1.10;;;;;;;;;;5052769;28;20498;-69
2023/10/06 02:39:37;;;;;;;2.13;1.00;;;;;;;;;;5052743;28;20499;-69
2023/10/06 02:42:13;;;;;;;4.18;1.20;;;;;;;;;;5052619;28;20384;-71
2023/10/06 02:44:41;;;;;;;1.50;0.70;;;;;;;;;;5052918;28;20442;-71
2023/10/06 02:47:09;;;;;;;2.70;1.20;;;;;;;;;;5052631;28;20032;-71
2023/10/06 02:49:37;;;;;;;2.22;1.15;;;;;;;;;;5052636;28;20596;-71
2023/10/06 02:52:16;;;;;;;2.65;1.27;;;;;;;;;;5051847;28;20122;-69
2023/10/06 02:54:47;;;;;;;3.13;1.20;;;;;;;;;;5052910;28;20043;-69
2023/10/06 02:57:14;;;;;;;1.83;1.00;;;;;;;;;;5052224;28;20640;-70
2023/10/06 02:59:43;;;;;;;3.88;1.30;;;;;;;;;;5052676;28;20431;-70
2023/10/06 03:02:15;;;;;;;3.30;1.27;;;;;;;;;;5052057;28;20068;-70
2023/10/06 03:04:43;;;;;;;2.58;1.00;;;;;;;;;;5052599;28;20059;-69
2023/10/06 03:07:15;;;;;;;2.55;0.90;;;;;;;;;;5052162;28;20507;-70
2023/10/06 03:09:46;;;;;;;1.67;0.68;;;;;;;;;;5052686;28;20111;-70
2023/10/06 03:12:20;;;;;;;2.80;0.98;;;;;;;;;;5052317;28;20433;-70
2023/10/06 03:14:46;;;;;;;1.88;0.80;;;;;;;;;;5052018;28;20092;-69
2023/10/06 03:17:13;;;;;;;1.40;0.90;;;;;;;;;;5052053;28;20406;-70
2023/10/06 03:19:40;;;;;;;1.52;0.90;;;;;;;;;;5051943;28;20029;-69
2023/10/06 03:22:10;;;;;;;1.63;0.95;;;20.10;78.20;;;;;;5051868;28;20499;-72
2023/10/06 03:24:53;;;;;;;1.92;0.90;;;20.40;73.00;;;;;;5052168;28;20028;-72
2023/10/06 03:27:19;;;;;;;2.60;0.85;;;;;;;;;;5051900;28;20399;-71
2023/10/06 03:32:27;;;;;;;2.47;1.02;;;20.20;78.40;;;;;;5051985;28;20044;-71
2023/10/06 03:34:54;;;;;;;2.55;0.98;;;;;;;;;;5052076;28;20044;-71
2023/10/06 03:37:34;;;;;;;2.20;0.82;;;;;;;;;;5052141;28;20037;-71
2023/10/06 03:40:19;;;;;;;2.35;1.08;;;20.10;78.40;;;;;;5051955;28;20032;-71
2023/10/06 03:42:47;;;;;;;2.85;1.10;;;;;;;;;;5051618;28;20530;-71
2023/10/06 03:45:27;;;;;;;2.30;1.30;;;;;;;;;;5051651;28;20387;-71
2023/10/06 03:47:54;;;;;;;1.47;0.97;;;20.10;78.50;;;;;;5051679;28;20086;-71
2023/10/06 03:50:20;;;;;;;2.55;1.17;;;;;;;;;;5051456;28;20624;-69
2023/10/06 03:52:49;;;;;;;2.83;1.17;;;;;;;;;;5051679;28;20033;-70
2023/10/06 03:55:17;;;;;;;1.45;1.02;;;;;;;;;;5051415;28;20040;-69
2023/10/06 03:57:43;;;;;;;2.78;1.55;;;;;;;;;;5051245;28;20044;-70
2023/10/06 04:00:16;;;;;;;2.95;1.40;;;;;;;;;;5051304;28;20044;-70
2023/10/06 04:02:48;;;;;;;2.13;1.33;;;;;;;;;;5051844;28;20435;-70
2023/10/06 04:05:14;;;;;;;2.60;1.70;;;;;;;;;;5052054;28;20037;-70
2023/10/06 04:07:40;;;;;;;2.75;2.05;;;;;;;;;;5033269;28;20041;-69
2023/10/06 04:10:14;;;;;;;2.70;2.47;;;;;;;;;;5051218;28;20372;-70
2023/10/06 04:12:40;;;;;;;3.25;2.95;;;;;;;;;;5051432;28;20067;-70
2023/10/06 04:15:06;;;;;;;4.97;4.20;;;;;;;;;;5051297;28;20451;-70
2023/10/06 04:17:32;;;;;;;5.90;5.40;;;;;;;;;;5051251;28;20123;-71
2023/10/06 04:19:58;;;;;;;7.05;6.40;;;;;;;;;;5051156;28;20116;-71
2023/10/06 04:22:24;;;;;;;8.32;7.55;;;;;;;;;;5050975;28;20045;-71
2023/10/06 04:24:50;;;;;;;9.52;8.73;;;;;;;;;;5051113;28;20037;-71
2023/10/06 04:27:16;;;;;;;11.23;10.13;;;;;;;;;;5051030;28;20086;-71
2023/10/06 04:29:42;;;;;;;13.70;12.48;;;;;;;;;;5050919;28;20055;-71
2023/10/06 04:32:13;;;;;;;15.45;14.15;;;;;;;;;;5051233;28;20037;-71
2023/10/06 04:34:40;;;;;;;16.45;15.15;;;;;;;;;;5051830;28;20127;-70
2023/10/06 04:37:07;;;;;;;18.00;16.45;;;;;;;;;;5051014;28;20051;-69
2023/10/06 04:39:33;;;;;;;19.58;17.80;;;;;;;;;;5050919;28;20610;-69
2023/10/06 04:42:00;;;;;;;20.80;18.88;;;;;;;;;;5051276;28;20049;-69
2023/10/06 04:44:26;;;;;;;22.73;20.83;;;;;;;;;;5050972;28;20208;-70
2023/10/06 04:46:52;;;;;;;24.10;22.00;;;;;;;;;;5050956;28;20069;-72
2023/10/06 04:49:18;;;;;;;23.85;21.75;;;;;;;;;;5050872;28;20033;-71
2023/10/06 04:51:45;;;;;;;24.48;22.33;;;;;;;;;;5050830;28;20091;-71
2023/10/06 04:54:13;;;;;;;25.05;22.63;;;;;;;;;;5050930;28;20033;-71
2023/10/06 04:56:39;;;;;;;24.92;22.63;;;;;;;;;;5050718;28;20075;-72
2023/10/06 04:59:06;;;;;;;24.10;22.10;;;;;;;;;;5050894;28;20719;-71
2023/10/06 05:01:32;;;;;;;25.05;22.83;;;;;;;;;;5050654;28;20411;-71
2023/10/06 05:03:58;;;;;;;23.05;21.00;;;;;;;;;;5051578;28;20033;-71
2023/10/06 05:06:24;;;;;;;24.83;22.67;;;;;;;;;;5050705;28;20029;-71
2023/10/06 05:08:50;;;;;;;22.95;20.77;;;;;;;;;;5050945;28;20029;-71
2023/10/06 05:11:17;;;;;;;22.10;20.20;;;19.90;78.10;;;;;;5050689;28;20120;-71
2023/10/06 05:13:43;;;;;;;22.13;20.10;;;;;;;;;;5050737;28;20029;-71
2023/10/06 05:16:11;;;;;;;21.25;19.23;;;;;;;;;;5053651;28;20514;-70
2023/10/06 05:18:38;;;;;;;20.77;18.90;;;;;;;;;;5054404;28;20052;-72
2023/10/06 05:21:06;;;;;;;20.70;18.77;;;;;;;;;;5054187;28;20208;-70
2023/10/06 05:23:34;;;;;;;20.42;18.52;;;;;;;;;;5054290;28;20040;-70
2023/10/06 05:26:07;;;;;;;19.10;17.30;;;;;;;;;;5054405;28;20439;-70
2023/10/06 05:28:34;;;;;;;16.70;15.30;;;;;;;;;;5054243;28;20188;-69
2023/10/06 05:31:00;;;;;;;17.15;15.60;;;;;;;;;;5054565;28;20120;-70
2023/10/06 05:33:26;;;;;;;17.48;15.82;;;;;;;;;;5054039;28;20084;-70
2023/10/06 05:35:52;;;;;;;15.55;14.05;;;;;;;;;;5053929;28;20044;-70
2023/10/06 05:38:19;;;;;;;15.07;13.73;;;;;;;;;;5053976;28;20113;-70
2023/10/06 05:40:46;;;;;;;14.68;13.15;;;;;;;;;;5053840;28;20037;-70
2023/10/06 05:43:12;;;;;;;13.45;12.20;;;;;;;;;;5054030;28;20029;-70
2023/10/06 05:45:43;;;;;;;12.88;11.68;;;19.80;79.70;;;;;;5053895;28;20044;-71
2023/10/06 05:48:11;;;;;;;12.98;11.35;;;19.80;79.50;;;;;;5053917;28;20033;-70
2023/10/06 05:50:37;;;;;;;11.63;10.52;;;;;;;;;;5053803;28;20033;-71
2023/10/06 05:53:12;;;;;;;10.95;9.85;;;19.80;78.10;;;;;;5053630;28;20037;-71
2023/10/06 05:55:41;;;;;;;10.27;9.07;;;19.70;77.90;;;;;;5053419;28;20480;-71
2023/10/06 05:58:14;;;;;;;10.00;9.00;;;;;;;;;;5053876;28;20049;-71
2023/10/06 06:00:50;;;;;;;10.20;8.73;;;;;;;;;;5054272;28;20110;-71
2023/10/06 06:03:20;;;;;;;8.85;7.57;;;;;;;;;;5053657;28;20040;-71
2023/10/06 06:05:47;;;;;;;7.53;6.63;;;;;;;;;;5053441;28;20033;-69
2023/10/06 06:08:14;;;;;;;7.90;7.10;;;;;;;;;;5053444;28;20044;-70
2023/10/06 06:10:52;;;;;;;7.07;6.47;;;;;;;;;;5053705;28;20052;-70
2023/10/06 06:13:18;;;;;;;8.63;6.57;;;;;;;;;;5053546;28;20083;-69
2023/10/06 06:15:45;;;;;;;8.30;6.57;;;;;;;;;;5053427;28;20045;-70
2023/10/06 06:18:13;;;;;;;7.72;6.63;;;;;;;;;;5053933;28;20037;-72
2023/10/06 06:20:42;;;;;;;7.03;5.53;;;;;;;;;;5053025;28;20459;-69
2023/10/06 06:23:12;;;;;;;5.47;4.97;;;19.70;78.40;;;;;;5053070;28;20037;-68
2023/10/06 06:25:38;;;;;;;5.68;4.88;;;;;;;;;;5052818;28;20029;-68
2023/10/06 06:28:05;;;;;;;9.60;4.95;;;;;;;;;;5052672;28;20048;-69
2023/10/06 06:30:33;;;;;;;5.30;4.60;;;;;;;;;;5053005;28;20029;-68
2023/10/06 06:33:01;;;;;;;7.15;4.18;;;;;;;;;;5052997;28;20048;-69
2023/10/06 06:35:28;;;;;;;7.05;3.80;;;19.40;78.00;;;;;;5052781;28;20082;-69
2023/10/06 06:38:01;;;;;;;5.75;3.55;;;19.70;79.70;;;;;;5052947;28;20033;-69
2023/10/06 06:40:28;;;;;;;6.55;3.70;;;;;;;;;;5053059;28;20139;-73
2023/10/06 06:42:57;;;;;;;6.38;3.35;;;;;;;;;;5052681;28;20063;-72
2023/10/06 06:45:24;;;;;;;5.65;3.42;;;;;;;;;;5052537;28;20037;-71
2023/10/06 06:47:50;;;;;;;3.67;3.05;;;;;;;;;;5052468;28;20029;-72
2023/10/06 06:50:17;;;;;;;4.22;2.85;;;;;;;;;;5052394;28;20521;-73
2023/10/06 06:52:51;;;;;;;4.05;2.70;;;19.70;80.00;;;;;;5035246;28;20091;-73
2023/10/06 06:55:19;;;;;;;4.10;2.88;;;19.70;76.90;;;;;;5052260;28;20057;-72
2023/10/06 06:57:49;;;;;;;4.32;2.72;;;19.70;80.00;;;;;;5052014;28;20099;-71
2023/10/06 07:00:18;;;;;;;3.43;2.70;;;19.60;79.80;;;;;;5052277;28;20044;-73
2023/10/06 07:02:48;;;;;;;3.10;2.25;;;19.60;74.20;;;;;;5052268;28;20033;-72
2023/10/06 07:05:15;;;;;;;5.50;2.70;;;19.60;78.80;;;;;;5052312;28;20036;-73
2023/10/06 07:07:43;;;;;;;7.20;2.38;;;19.70;79.90;;;;;;5052263;28;20043;-72
2023/10/06 07:10:14;;;;;;;3.00;2.13;;;19.60;79.80;;;;;;5051924;28;20501;-72
2023/10/06 07:12:44;;;;;;;3.92;2.72;;;19.60;79.70;;;;;;5052044;28;20036;-72
2023/10/06 07:15:20;;;;;;;3.38;2.10;;;19.50;77.20;;;;;;5051994;28;20036;-72
2023/10/06 07:17:45;;;;;;;3.88;2.58;;;;;;;;;;5052082;28;20033;-72
2023/10/06 07:20:23;;;;;;;4.60;2.00;;;19.60;74.30;;;;;;5051851;28;20484;-72
2023/10/06 07:22:54;;;;;;;4.57;2.05;;;19.60;78.10;;;;;;5051859;28;20436;-72
2023/10/06 07:25:20;;;;;;;;;;;19.60;80.60;;;;;;5052295;28;20044;-72
2023/10/06 07:27:47;;;;;;;3.90;2.00;;;19.60;79.80;;;;;;5051925;28;19905;-72
2023/10/06 07:30:19;;;;;;;4.38;1.85;;;19.60;79.80;;;;;;5051703;28;20045;-72
2023/10/06 07:32:46;;;;;;;3.60;1.55;;;;;;;;;;5051852;28;20036;-72
2023/10/06 07:35:17;;;;;;;2.05;1.58;;;19.60;80.20;;;;;;5051608;28;20044;-70
2023/10/06 07:37:44;;;;;;;3.33;1.60;;;19.50;77.00;;;;;;5051448;28;20043;-70
2023/10/06 07:40:14;;;;;;;3.92;2.08;;;19.60;80.00;;;;;;5051744;28;20040;-71
2023/10/06 07:42:44;;;;;;;;;;;19.60;79.80;;;;;;5052292;28;20045;-70
2023/10/06 07:45:11;;;;;;;3.97;1.67;;;;;;;;;;5051850;28;19911;-70
2023/10/06 07:47:42;;;;;;;3.33;1.55;;;19.60;74.80;;;;;;5051447;28;20479;-70
2023/10/06 07:50:09;;;;;;;4.70;1.98;;;;;;;;;;5051349;28;20507;-70
2023/10/06 07:52:42;;;;;;;2.50;1.88;;;19.60;74.60;;;;;;5051660;28;20037;-70
2023/10/06 07:55:12;;;;;;;4.90;1.85;;;19.60;80.40;;;;;;5051405;28;20033;-70
2023/10/06 07:57:41;;;;;;;8.40;1.70;;;;;;;;;;5051033;28;20499;-70
2023/10/06 08:00:12;;;;;;;3.30;1.65;;;19.60;80.30;;;;;;5051508;28;20376;-69
2023/10/06 08:02:41;;;;;;;9.57;1.90;;;;;;;;;;5050945;28;20037;-70
2023/10/06 08:05:11;;;;;;;3.22;1.50;;;19.40;75.10;;;;;;5051144;28;20442;-69
2023/10/06 08:07:45;;;;;;;5.10;1.90;;;19.50;80.20;;;;;;5051013;28;20440;-70
2023/10/06 08:10:14;;;;;;;7.50;1.88;;;19.50;80.30;;;;;;5034209;28;20369;-71
2023/10/06 08:12:45;;;;;;;3.17;1.87;;;19.60;74.90;;;;;;5051561;28;20033;-70
2023/10/06 08:15:17;;;;;;;4.10;1.73;;;20.00;80.50;;;;;;5051425;28;20033;-70
2023/10/06 08:17:45;;;;;;;4.07;1.85;;;19.50;80.70;;;;;;5051571;28;20033;-71
2023/10/06 08:20:14;;;;;;;4.00;1.73;;;19.70;77.40;;;;;;5051379;28;20060;-71
2023/10/06 08:22:46;;;;;;;4.82;1.63;;;19.70;80.70;;;;;;5033918;28;20048;-70
2023/10/06 08:25:13;;;;;;;4.15;1.63;;;19.70;80.40;;;;;;5051000;28;20029;-70
2023/10/06 08:27:41;;;;;;;4.70;1.55;;;19.70;80.30;;;;;;5051303;28;20071;-71
2023/10/06 08:30:18;;;;;;;6.55;2.05;;;19.70;75.60;;;;;;5051402;28;20364;-78
2023/10/06 08:32:46;;;;;;;2.88;1.52;;;19.60;81.00;;;;;;5053309;28;20037;-74
2023/10/06 08:35:13;;;;;;;4.22;1.80;;;;;;;;;;5051674;28;20037;-70
2023/10/06 08:37:43;;;;;;;5.78;1.50;;;19.80;81.20;;;;;;5050879;28;20376;-72
2023/10/06 08:40:16;;;;;;;4.40;1.73;;;19.80;80.40;;;;;;5051004;28;20064;-72
2023/10/06 08:42:48;;;;;;;3.15;1.95;;;19.70;81.20;;;;;;5051038;28;20045;-72
2023/10/06 08:45:20;;;;;;;5.20;1.55;;;19.70;75.80;;;;;;5050851;28;20087;-72
2023/10/06 08:47:50;;;;;;;4.20;2.10;;;19.80;81.40;;;;;;5051048;28;20100;-72
2023/10/06 08:50:23;;;;;;;7.93;1.77;;;;;;;;;;5052507;28;20487;-73
2023/10/06 08:52:53;;;;;;;3.58;1.63;;;19.90;81.40;;;;;;5055234;28;20056;-71
2023/10/06 08:55:20;;;;;;;4.93;1.98;;;19.90;79.70;;;;;;5055286;28;20141;-71
2023/10/06 08:57:51;;;;;;;2.92;1.90;;;19.80;76.20;;;;;;5054541;28;20076;-72
2023/10/06 09:00:23;;;;;;;3.30;1.55;;;19.90;76.20;;;;;;5054344;28;20041;-72
2023/10/06 09:02:51;;;;;;;4.50;1.50;;;19.80;79.90;;;;;;5054578;28;20044;-72
2023/10/06 09:05:18;;;;;;;4.25;1.70;;;19.80;81.90;;;;;;5054710;28;20391;-72
2023/10/06 09:08:05;;;;;;;3.05;1.05;;;19.90;76.50;;;;;;5054553;28;20108;-73
2023/10/06 09:10:41;;;;;;;4.57;2.00;;;19.90;76.70;;;;;;5054586;28;20036;-72
2023/10/06 09:13:17;;;;;;;3.80;1.90;;;20.00;76.90;;;;;;5054375;28;20084;-73
2023/10/06 09:15:59;;;;;;;3.83;1.92;;;20.00;82.20;;;;;;5054250;28;20391;-72
2023/10/06 09:18:34;;;;;;;4.47;1.67;;;19.90;82.50;;;;;;5054529;28;20379;-72
2023/10/06 09:21:19;;;;;;;4.15;1.77;;;19.90;76.70;;;;;;5054321;28;20041;-72
2023/10/06 09:23:45;;;;;;;3.05;1.33;;;;;;;;;;5054466;28;20059;-72
2023/10/06 09:26:18;;;;;;;3.88;1.55;;;20.00;82.50;;;;;;5054366;28;20033;-73
2023/10/06 09:28:55;;;;;;;7.07;2.33;;;20.10;77.00;;;;;;5053852;28;20075;-72
2023/10/06 09:31:37;;;;;;;4.28;1.65;;;20.00;76.90;;;;;;5054059;28;20475;-72
2023/10/06 09:34:07;;;;;;;4.25;1.73;;;;;;;;;;5053991;28;20041;-72
2023/10/06 09:36:33;;;;;;;4.70;1.70;;;;;;;;;;5035986;28;20025;-72
2023/10/06 09:39:00;;;;;;;4.03;1.77;;;20.00;82.40;;;;;;5053855;28;20036;-72
2023/10/06 09:41:28;;;;;;;4.53;1.48;;;20.10;82.60;;;;;;5053790;28;20056;-72
2023/10/06 09:44:09;;;;;;;5.00;1.35;;;20.10;76.90;;;;;;5054171;28;20029;-72
2023/10/06 09:46:35;;;;;;;5.18;1.80;;;20.40;79.40;;;;;;5053813;28;20044;-72
2023/10/06 09:49:07;;;;;;;3.33;2.00;;;20.20;82.80;;;;;;5035780;28;20515;-72
2023/10/06 09:51:36;;;;;;;4.82;1.85;;;20.10;82.70;;;;;;5053645;28;20040;-72
2023/10/06 09:54:04;;;;;;;3.55;1.50;;;20.30;82.00;;;;;;5053875;28;20083;-72
2023/10/06 09:56:31;;;;;;;3.58;1.67;;;20.20;80.90;;;;;;5053450;28;20040;-70
2023/10/06 09:58:57;;;;;;;2.78;1.40;;;;;;;;;;5053782;28;20044;-72
2023/10/06 10:01:26;;;;;;;4.72;1.70;;;20.20;82.90;;;;;;5053444;28;20045;-72
2023/10/06 10:03:54;;;;;;;3.72;1.90;;;;;;;;;;5053759;28;20036;-71
2023/10/06 10:06:22;;;;;;;2.17;1.45;;;20.40;82.80;;;;;;5053602;28;20450;-72
2023/10/06 10:08:51;;;;;;;5.50;2.05;;;;;;;;;;5053404;28;20104;-71
2023/10/06 10:11:28;;;;;;;5.22;2.10;;;20.40;82.70;;;;;;5052910;28;20032;-70
2023/10/06 10:14:25;;;;;;;3.83;1.77;;;20.40;77.20;;;;;;5053158;28;20094;-72
2023/10/06 10:16:51;;;;;;;3.10;1.50;;;;;;;;;;5053136;28;20124;-72
2023/10/06 10:19:22;;;;;;;3.10;1.50;;;20.50;82.70;;;;;;5053007;28;20044;-75
2023/10/06 10:21:48;;;;;;;2.55;1.27;;;;;;;;;;5035114;28;20503;-72
2023/10/06 10:24:19;;;;;;;3.38;1.60;;;20.60;82.70;;;;;;5053232;28;20037;-72
2023/10/06 10:26:50;;;;;;;3.33;1.65;;;20.50;83.00;;;;;;5053288;28;20044;-72
2023/10/06 10:29:16;;;;;;;3.50;1.50;;;;;;;;;;5053376;28;20061;-73
2023/10/06 10:31:44;;;;;;;4.65;1.90;;;;;;;;;;5053119;28;20037;-72
2023/10/06 10:34:23;;;;;;;2.92;1.42;;;20.50;77.70;;;;;;5052909;28;20040;-72
2023/10/06 10:37:05;;;;;;;4.13;1.98;;;20.60;77.90;;;;;;5036278;28;20037;-74
2023/10/06 10:39:50;;;;;;;5.03;2.10;;;20.50;77.80;;;;;;5052716;28;20033;-69
2023/10/06 10:42:18;;;;;;;3.22;1.52;;;20.60;80.40;;;;;;5052786;28;20076;-70
2023/10/06 10:44:47;;;;;;;5.18;1.70;;;20.60;83.30;;;;;;5052559;28;20057;-71
2023/10/06 10:47:13;;;;;;;3.50;1.23;;;;;;;;;;5052559;28;20039;-73
2023/10/06 10:49:41;;;;;;;3.40;1.40;;;20.60;83.60;;;;;;5053171;28;20041;-72
2023/10/06 10:52:07;;;;;;;3.97;1.95;;;;;;;;;;5052888;28;20029;-70
2023/10/06 10:54:34;;;;;;;5.25;1.65;;;;;;;;;;5052668;28;20037;-71
2023/10/06 10:57:28;;;;;;;5.40;2.00;;;20.40;77.90;;;;;;5052215;28;20057;-72
2023/10/06 11:00:11;;;;;;;4.60;1.70;;;20.60;78.20;;;;;;5035348;28;20088;-72
2023/10/06 11:02:49;;;;;;;3.45;1.42;;;20.90;78.30;;;;;;5034555;28;20041;-72
2023/10/06 11:05:20;;;;;;;3.17;1.80;;;20.60;78.00;;;;;;5052488;28;20043;-71
2023/10/06 11:08:01;;;;;;;5.47;1.75;;;20.60;77.90;;;;;;5052474;28;20099;-72
2023/10/06 11:10:27;;;;;;;2.42;1.65;;;;;;;;;;5034705;28;20029;-71
2023/10/06 11:13:13;;;;;;;5.38;2.25;;;20.60;78.30;;;;;;5051489;28;20092;-71
2023/10/06 11:15:39;;;;;;;3.80;1.60;;;;;;;;;;5051843;28;20025;-72
2023/10/06 11:18:06;;;;;;;5.97;2.00;;;;;;;;;;5052090;28;20045;-72
2023/10/06 11:20:39;;;;;;;3.83;1.40;;;20.60;78.00;;;;;;5017881;28;20071;-73
2023/10/06 11:23:24;;;;;;;4.38;1.63;;;;;;;;;;5037279;28;20041;-72
2023/10/06 11:26:11;;;;;;;3.20;1.70;;;;;;;;;;5037341;28;20025;-74
2023/10/06 11:28:56;;;;;;;5.53;1.83;;;;;;;;;;5053386;28;20522;-71
2023/10/06 11:31:43;;;;;;;3.75;1.52;;;;;;;;;;5036704;28;20116;-73
2023/10/06 11:34:09;;;;;;;5.50;1.95;;;;;;;;;;5051606;28;20040;-73
2023/10/06 11:36:56;;;;;;;3.75;2.08;;;20.80;82.30;;;;;;5051358;28;20050;-73
2023/10/06 11:39:42;;;;;;;3.90;1.70;;;;;;;;;;5051077;28;20033;-73
2023/10/06 11:42:24;;;;;;;4.85;1.88;;;20.80;77.50;;;;;;5051404;28;20037;-73
2023/10/06 11:44:53;;;;;;;5.45;2.33;;;;;;;;;;5033982;28;20033;-72
2023/10/06 11:47:37;;;;;;;3.28;1.52;;;20.90;83.00;;;;;;5052165;28;20041;-73
2023/10/06 11:50:08;;;;;;;6.63;2.25;;;;;;;;;;5034411;28;20041;-71
2023/10/06 11:52:50;;;;;;;3.30;1.80;;;;;;;;;;5050417;28;20029;-72
2023/10/06 11:55:24;;;;;;;4.32;2.05;;;21.30;76.80;;;;;;5051711;28;20038;-72
2023/10/06 11:57:51;;;;;;;6.30;1.52;;;;;;;;;;5014412;28;20141;-72
2023/10/06 12:00:32;;;;;;;6.30;2.10;;;21.40;80.30;;;;;;5031733;28;20034;-72
2023/10/06 12:03:00;;;;;;;5.03;2.10;;;;;;;;;;5031231;28;20066;-72
2023/10/06 12:05:27;;;;;;;4.60;2.05;;;;;;;;;;5031320;28;20104;-72
2023/10/06 12:08:00;;;;;;;3.35;1.50;;;21.50;81.50;;;;;;5031386;28;20053;-72
2023/10/06 12:10:27;;;;;;;5.25;1.75;;;;;;;;;;5031423;28;20419;-72
2023/10/06 12:12:55;;;;;;;3.75;1.58;;;;;;;;;;5031204;28;20396;-72
2023/10/06 12:15:21;;;;;;;6.40;1.77;;;;;;;;;;5031225;28;20036;-73
2023/10/06 12:17:47;;;;;;;3.47;1.52;;;;;;;;;;5031613;28;20408;-72
2023/10/06 12:20:13;;;;;;;4.55;1.83;;;;;;;;;;5031275;28;20033;-72
2023/10/06 12:22:44;;;;;;;5.20;1.80;;;21.60;82.20;;;;;;5031494;28;20113;-72
2023/10/06 12:25:11;;;;;;;2.90;1.70;;;;;;;;;;5032715;28;20061;-72
2023/10/06 12:27:47;;;;;;;5.47;2.25;;;21.70;79.90;;;;;;5018025;28;20052;-72
2023/10/06 12:30:14;;;;;;;5.32;1.67;;;21.70;80.90;;;;;;5035346;28;20029;-72
2023/10/06 12:32:41;;;;;;;3.13;1.85;;;;;;;;;;5035078;28;20041;-72
2023/10/06 12:35:08;;;;;;;4.57;1.70;;;;;;;;;;5035085;28;20048;-72
2023/10/06 12:37:40;;;;;;;4.97;1.45;;;;;;;;;;5034820;28;20087;-72
2023/10/06 12:40:08;;;;;;;4.45;2.00;;;;;;;;;;5035205;28;20483;-71
2023/10/06 12:42:34;;;;;;;5.00;1.90;;;;;;;;;;5034795;28;20048;-72
2023/10/06 12:45:00;;;;;;;4.10;1.80;;;;;;;;;;5034877;28;20037;-72
2023/10/06 12:47:27;;;;;;;7.03;1.98;;;;;;;;;;5034920;28;20431;-73
2023/10/06 12:49:53;;;;;;;3.92;2.10;;;;;;;;;;5034940;28;20380;-72
2023/10/06 12:52:19;;;;;;;3.20;1.67;;;;;;;;;;5034610;28;20037;-72
2023/10/06 12:54:46;;;;;;;4.05;1.88;;;;;;;;;;5034957;28;20133;-73
2023/10/06 12:57:13;;;;;;;5.45;1.63;;;22.20;75.50;;;;;;5048113;28;20057;-72
2023/10/06 12:59:41;;;;;;;3.55;1.73;;;;;;;;;;5055150;28;20032;-72
2023/10/06 13:02:09;;;;;;;2.45;1.48;;;;;;;;;;5037487;28;20404;-72
2023/10/06 13:04:36;;;;;;;4.65;1.70;;;;;;;;;;5054680;28;20071;-73
2023/10/06 13:07:04;;;;;;;2.95;1.02;;;;;;;;;;5054453;28;20039;-72
2023/10/06 13:09:34;;;;;;;4.15;1.65;;;;;;;;;;5054541;28;20041;-74
2023/10/06 13:12:00;;;;;;;6.60;2.30;;;;;;;;;;5054504;28;20064;-72
2023/10/06 13:14:28;;;;;;;2.40;1.85;;;;;;;;;;5054070;28;20037;-72
2023/10/06 13:16:55;;;;;;;3.67;1.70;;;;;;;;;;5054436;28;20048;-73
2023/10/06 13:19:21;;;;;;;4.43;1.92;;;;;;;;;;5054161;28;20044;-72
2023/10/06 13:21:48;;;;;;;3.03;1.48;;;;;;;;;;5053883;28;20059;-73
2023/10/06 13:24:16;;;;;;;4.78;2.28;;;;;;;;;;5053915;28;20029;-73
2023/10/06 13:26:43;;;;;;;4.05;2.13;;;;;;;;;;5053944;28;20500;-73
2023/10/06 13:29:09;;;;;;;3.20;1.42;;;;;;;;;;5053850;28;20511;-72
2023/10/06 13:31:37;;;;;;;2.75;1.42;;;;;;;;;;5053871;28;20502;-72
2023/10/06 13:34:03;;;;;;;5.53;1.60;;;;;;;;;;5053874;28;20064;-72
2023/10/06 13:36:30;;;;;;;4.30;2.00;;;;;;;;;;5053156;28;20487;-72
2023/10/06 13:38:57;;;;;;;4.70;1.60;;;;;;;;;;5054012;28;20033;-71
2023/10/06 13:41:23;;;;;;;2.80;1.20;;;;;;;;;;5053999;28;20091;-71
2023/10/06 13:43:49;;;;;;;3.83;1.60;;;;;;;;;;5053642;28;20059;-71
2023/10/06 13:46:17;;;;;;;2.72;1.77;;;;;;;;;;5053651;28;20423;-71
2023/10/06 13:48:43;;;;;;;3.60;1.98;;;;;;;;;;5053479;28;20070;-71
2023/10/06 13:51:09;;;;;;;4.78;2.45;;;;;;;;;;5053515;28;20041;-71
2023/10/06 13:53:37;;;;;;;6.20;2.28;;;;;;;;;;5053769;28;20044;-73
2023/10/06 13:56:04;;;;;;;6.68;2.22;;;;;;;;;;5053308;28;20064;-73
2023/10/06 13:58:30;;;;;;;7.45;2.45;;;;;;;;;;5053718;28;20037;-73
2023/10/06 14:00:58;;;;;;;9.32;2.65;;;;;;;;;;5053513;28;20068;-73
2023/10/06 14:03:24;;;;;;;7.38;2.35;;;;;;;;;;5053594;28;20030;-73
2023/10/06 14:05:55;;;;;;;7.32;2.47;;;;;;;;;;5053655;28;20060;-73
2023/10/06 14:08:22;;;;;;;7.13;2.55;;;;;;;;;;5053666;28;20136;-73
2023/10/06 14:10:49;;;;;;;5.93;2.33;;;;;;;;;;5053589;28;20075;-73
2023/10/06 14:13:16;;;;;;;6.60;2.63;;;;;;;;;;5053214;28;20043;-73
2023/10/06 14:15:49;;;;;;;7.57;2.40;;;23.60;74.50;;;;;;5053126;28;20044;-74
2023/10/06 14:18:24;;;;;;;8.23;2.60;;;23.60;75.80;;;;;;5053432;28;20040;-74